createdAt,value
2022-09-10T00:02:23.835Z,101104.94
2022-09-10T00:04:54.600Z,101107.13
2022-09-10T00:07:25.606Z,101111.41
2022-09-10T00:09:56.251Z,101105.91
2022-09-10T00:12:26.881Z,101101.50
2022-09-10T00:14:58.531Z,101117.66
2022-09-10T00:17:30.119Z,101127.31
2022-09-10T00:20:02.078Z,101130.28
2022-09-10T00:22:32.892Z,101136.69
2022-09-10T00:25:08.104Z,101139.16
2022-09-10T00:27:39.762Z,101141.84
2022-09-10T00:30:10.408Z,101140.00
2022-09-10T00:32:41.201Z,101145.72
2022-09-10T00:35:13.728Z,101146.75
2022-09-10T00:37:44.447Z,101142.28
2022-09-10T00:40:19.316Z,101158.28
2022-09-10T00:42:49.999Z,101155.75
2022-09-10T00:45:32.498Z,101159.91
2022-09-10T00:48:09.074Z,101170.31
2022-09-10T00:50:43.987Z,101163.28
2022-09-10T00:53:19.079Z,101168.16
2022-09-10T00:55:53.996Z,101174.94
2022-09-10T00:58:27.363Z,101174.44
2022-09-10T01:01:02.927Z,101174.66
2022-09-10T01:03:35.470Z,101178.31
2022-09-10T01:06:07.061Z,101184.59
2022-09-10T01:08:42.019Z,101179.09
2022-09-10T01:11:37.195Z,101190.13
2022-09-10T01:14:43.467Z,101182.91
2022-09-10T01:17:28.715Z,101193.25
2022-09-10T01:20:31.618Z,101195.41
2022-09-10T01:23:37.732Z,101187.56
2022-09-10T01:26:16.523Z,101188.34
2022-09-10T01:29:05.131Z,101191.69
2022-09-10T01:32:03.475Z,101198.19
2022-09-10T01:34:54.088Z,101194.09
2022-09-10T01:37:31.192Z,101193.50
2022-09-10T01:40:04.790Z,101197.59
2022-09-10T01:42:42.268Z,101200.34
2022-09-10T01:45:16.964Z,101208.00
2022-09-10T01:48:04.193Z,101210.25
2022-09-10T01:50:52.949Z,101209.34
2022-09-10T01:53:48.596Z,101211.78
2022-09-10T01:56:41.209Z,101209.56
2022-09-10T01:59:26.237Z,101221.09
2022-09-10T02:02:09.674Z,101211.44
2022-09-10T02:04:41.303Z,101217.22
2022-09-10T02:07:15.442Z,101226.59
2022-09-10T02:09:46.567Z,101227.13
2022-09-10T02:12:23.080Z,101217.69
2022-09-10T02:15:01.058Z,101225.94
2022-09-10T02:17:44.198Z,101227.47
2022-09-10T02:20:17.515Z,101231.59
2022-09-10T02:44:21.684Z,101238.13
2022-09-10T02:46:52.509Z,101231.72
2022-09-10T02:49:23.916Z,101235.00
2022-09-10T02:51:54.950Z,101232.97
2022-09-10T02:54:27.235Z,101229.94
2022-09-10T02:56:59.345Z,101237.38
2022-09-10T02:59:30.145Z,101230.63
2022-09-10T03:02:01.017Z,101241.63
2022-09-10T03:04:32.061Z,101237.13
2022-09-10T03:07:03.093Z,101231.88
2022-09-10T03:09:33.895Z,101222.69
2022-09-10T03:12:05.072Z,101220.47
2022-09-10T03:14:37.206Z,101218.53
2022-09-10T03:17:08.792Z,101212.72
2022-09-10T03:19:39.896Z,101203.91
2022-09-10T03:22:10.997Z,101208.34
2022-09-10T03:24:42.433Z,101198.66
2022-09-10T03:27:13.564Z,101198.34
2022-09-10T03:29:45.333Z,101193.78
2022-09-10T03:32:17.086Z,101191.19
2022-09-10T03:34:48.211Z,101191.41
2022-09-10T03:37:20.114Z,101198.56
2022-09-10T03:39:50.303Z,101190.38
2022-09-10T03:42:21.196Z,101197.66
2022-09-10T03:45:01.720Z,101202.56
2022-09-10T03:47:34.038Z,101210.06
2022-09-10T03:50:05.431Z,101209.09
2022-09-10T03:52:36.288Z,101202.97
2022-09-10T03:55:07.275Z,101210.94
2022-09-10T03:57:38.087Z,101202.88
2022-09-10T04:00:10.026Z,101214.19
2022-09-10T04:02:47.658Z,101212.88
2022-09-10T04:05:18.681Z,101207.38
2022-09-10T04:07:49.294Z,101200.94
2022-09-10T04:10:23.152Z,101200.66
2022-09-10T04:12:56.116Z,101200.41
2022-09-10T04:15:28.682Z,101202.56
2022-09-10T04:17:59.805Z,101201.13
2022-09-10T04:20:30.934Z,101203.69
2022-09-10T04:23:10.022Z,101193.50
2022-09-10T04:25:42.687Z,101195.41
2022-09-10T04:28:14.255Z,101199.13
2022-09-10T04:30:48.193Z,101185.63
2022-09-10T04:33:18.950Z,101183.31
2022-09-10T04:35:50.965Z,101177.88
2022-09-10T04:38:21.704Z,101188.50
2022-09-10T04:40:54.939Z,101174.00
2022-09-10T04:43:28.249Z,101173.59
2022-09-10T04:45:59.928Z,101162.34
2022-09-10T04:48:31.605Z,101161.03
2022-09-10T04:51:18.416Z,101155.50
2022-09-10T04:53:57.189Z,101142.66
2022-09-10T04:56:32.554Z,101132.78
2022-09-10T04:59:03.932Z,101129.69
2022-09-10T05:01:38.006Z,101121.22
2022-09-10T05:04:09.226Z,101118.84
2022-09-10T05:06:41.484Z,101113.66
2022-09-10T05:09:14.690Z,101109.88
2022-09-10T05:11:46.079Z,101105.75
2022-09-10T05:14:17.315Z,101095.84
2022-09-10T05:16:49.564Z,101101.59
2022-09-10T05:19:20.695Z,101096.16
2022-09-10T05:22:06.163Z,101080.63
2022-09-10T05:24:37.880Z,101079.63
2022-09-10T05:27:10.121Z,101067.97
2022-09-10T05:29:40.925Z,101062.81
2022-09-10T05:32:13.210Z,101055.31
2022-09-10T05:34:44.311Z,101050.91
2022-09-10T05:37:21.397Z,101036.56
2022-09-10T05:39:52.553Z,101039.53
2022-09-10T05:42:25.464Z,101034.44
2022-09-10T05:44:56.759Z,101030.03
2022-09-10T05:47:28.209Z,101031.75
2022-09-10T05:49:59.076Z,101016.31
2022-09-10T05:52:31.088Z,101012.72
2022-09-10T05:55:05.443Z,101002.19
2022-09-10T05:57:37.242Z,100993.41
2022-09-10T06:00:11.424Z,100983.72
2022-09-10T06:02:45.687Z,100984.22
2022-09-10T06:05:41.866Z,100977.38
2022-09-10T06:08:17.355Z,100970.09
2022-09-10T06:11:00.480Z,100956.63
2022-09-10T06:13:39.978Z,100956.63
2022-09-10T06:16:12.923Z,100947.22
2022-09-10T06:18:51.041Z,100938.97
2022-09-10T06:21:28.476Z,100940.75
2022-09-10T06:24:02.638Z,100934.28
2022-09-10T06:26:42.383Z,100925.53
2022-09-10T06:29:18.727Z,100924.41
2022-09-10T06:31:56.250Z,100917.09
2022-09-10T06:34:29.986Z,100922.91
2022-09-10T06:37:07.798Z,100912.38
2022-09-10T06:39:47.519Z,100894.00
2022-09-10T06:42:26.840Z,100891.25
